createdAt,value
2018-07-31T00:00:53.092Z,14.60
2018-07-31T00:03:21.394Z,18.03
2018-07-31T00:05:49.633Z,18.07
2018-07-31T00:08:17.946Z,20.30
2018-07-31T00:10:46.226Z,19.27
2018-07-31T00:13:14.725Z,20.27
2018-07-31T00:15:42.989Z,20.80
2018-07-31T00:18:11.281Z,21.83
2018-07-31T00:20:39.538Z,22.13
2018-07-31T00:23:07.984Z,21.30
2018-07-31T00:25:36.242Z,21.37
2018-07-31T00:28:04.513Z,21.33
2018-07-31T00:30:34.715Z,20.73
2018-07-31T00:33:03.051Z,21.07
2018-07-31T00:35:31.385Z,22.73
2018-07-31T00:37:59.686Z,21.83
2018-07-31T00:40:27.994Z,22.40
2018-07-31T00:42:56.273Z,22.30
2018-07-31T00:45:24.631Z,19.83
2018-07-31T00:47:52.922Z,19.97
2018-07-31T00:50:21.193Z,19.80
2018-07-31T00:52:49.457Z,19.73
2018-07-31T00:55:17.975Z,18.90
2018-07-31T00:57:46.238Z,19.03
2018-07-31T01:00:14.489Z,16.07
2018-07-31T01:02:42.787Z,15.30
2018-07-31T01:05:11.067Z,13.93
2018-07-31T01:07:39.369Z,14.13
2018-07-31T01:10:07.917Z,13.60
2018-07-31T01:12:36.169Z,11.60
2018-07-31T01:15:04.732Z,10.13
2018-07-31T01:17:33.018Z,9.10
2018-07-31T01:20:01.369Z,8.97
2018-07-31T01:22:29.625Z,9.20
2018-07-31T01:24:58.066Z,8.30
2018-07-31T01:27:26.364Z,8.13
2018-07-31T01:29:54.752Z,7.70
2018-07-31T01:32:23.028Z,8.60
2018-07-31T01:34:51.275Z,7.60
2018-07-31T01:37:19.577Z,7.90
2018-07-31T01:39:47.807Z,8.27
2018-07-31T01:42:16.111Z,7.87
2018-07-31T01:44:44.435Z,8.57
2018-07-31T01:47:12.747Z,8.00
2018-07-31T01:49:41.283Z,7.57
2018-07-31T01:52:09.617Z,7.50
2018-07-31T01:54:37.879Z,8.07
2018-07-31T01:57:06.168Z,8.07
2018-07-31T01:59:34.491Z,7.40
2018-07-31T02:02:02.771Z,7.60
2018-07-31T02:04:31.250Z,8.00
2018-07-31T02:06:59.582Z,6.87
2018-07-31T02:09:27.875Z,7.53
2018-07-31T02:11:56.157Z,7.10
2018-07-31T02:14:24.411Z,7.50
2018-07-31T02:16:52.708Z,8.00
2018-07-31T02:19:20.981Z,8.23
2018-07-31T02:21:49.280Z,7.57
2018-07-31T02:24:20.012Z,8.13
2018-07-31T02:26:48.294Z,7.53
2018-07-31T02:29:20.774Z,8.47
2018-07-31T02:31:49.172Z,7.27
2018-07-31T02:34:17.416Z,7.80
2018-07-31T02:36:45.712Z,7.63
2018-07-31T02:39:13.989Z,7.13
2018-07-31T02:41:42.233Z,7.37
2018-07-31T02:44:10.544Z,7.13
2018-07-31T02:46:38.840Z,7.20
2018-07-31T02:49:07.141Z,8.13
2018-07-31T02:51:35.388Z,7.70
2018-07-31T02:54:03.693Z,7.73
2018-07-31T02:56:31.976Z,7.97
2018-07-31T02:59:00.262Z,8.37
2018-07-31T03:01:28.551Z,7.00
2018-07-31T03:03:56.828Z,7.83
2018-07-31T03:06:25.133Z,7.20
2018-07-31T03:08:53.393Z,7.90
2018-07-31T03:11:21.993Z,7.60
2018-07-31T03:13:50.299Z,7.63
2018-07-31T03:16:18.964Z,7.70
2018-07-31T03:18:47.355Z,7.73
2018-07-31T03:21:15.777Z,7.80
2018-07-31T03:23:44.101Z,7.53
2018-07-31T03:26:12.495Z,7.63
2018-07-31T03:28:40.774Z,8.07
2018-07-31T03:31:09.380Z,8.23
2018-07-31T03:33:37.635Z,8.50
2018-07-31T03:36:05.903Z,8.10
2018-07-31T03:38:35.071Z,8.50
2018-07-31T03:41:03.331Z,8.83
2018-07-31T03:43:31.850Z,7.70
2018-07-31T03:46:00.088Z,7.83
2018-07-31T03:48:28.344Z,8.53
2018-07-31T03:50:56.628Z,8.60
2018-07-31T03:53:24.900Z,7.90
2018-07-31T03:55:53.192Z,8.27
2018-07-31T03:58:21.442Z,8.80
2018-07-31T04:00:49.814Z,8.43
2018-07-31T04:03:18.071Z,7.83
2018-07-31T04:05:46.695Z,8.43
2018-07-31T04:08:15.020Z,8.27
2018-07-31T04:10:43.271Z,8.80
2018-07-31T04:13:11.553Z,8.87
2018-07-31T04:15:39.825Z,8.43
2018-07-31T04:18:08.166Z,9.30
2018-07-31T04:20:36.460Z,9.17
2018-07-31T04:23:04.769Z,8.67
2018-07-31T04:25:33.063Z,8.00
2018-07-31T04:28:01.554Z,8.90
2018-07-31T04:30:29.869Z,8.47
2018-07-31T04:32:58.130Z,8.80
2018-07-31T04:35:26.482Z,7.43
2018-07-31T04:37:54.912Z,9.10
2018-07-31T04:40:23.174Z,8.97
2018-07-31T04:42:51.500Z,9.03
2018-07-31T04:45:19.790Z,8.33
2018-07-31T04:47:48.081Z,9.17
2018-07-31T04:50:19.223Z,9.57
2018-07-31T04:52:47.465Z,9.83
2018-07-31T04:55:15.769Z,9.57
2018-07-31T04:57:44.023Z,9.83
2018-07-31T05:00:12.375Z,9.73
2018-07-31T05:02:40.677Z,9.07
2018-07-31T05:05:08.954Z,9.70
2018-07-31T05:07:39.244Z,10.07
2018-07-31T05:10:10.060Z,10.37
2018-07-31T05:12:38.460Z,9.83
2018-07-31T05:15:06.954Z,9.47
2018-07-31T05:17:36.091Z,10.13
2018-07-31T05:20:04.631Z,10.43
2018-07-31T05:22:32.878Z,9.87
2018-07-31T05:25:01.216Z,9.57
2018-07-31T05:27:29.564Z,10.37
2018-07-31T05:29:57.814Z,9.40
2018-07-31T05:32:26.061Z,9.50
2018-07-31T05:34:54.429Z,10.10
2018-07-31T05:37:22.801Z,10.20
2018-07-31T05:39:51.128Z,10.10
2018-07-31T05:42:19.390Z,9.10
2018-07-31T05:44:47.679Z,9.30
2018-07-31T05:47:15.976Z,8.93
2018-07-31T05:49:44.258Z,9.27
2018-07-31T05:52:12.691Z,8.67
2018-07-31T05:54:41.148Z,9.13
2018-07-31T05:57:09.497Z,8.63
2018-07-31T05:59:37.806Z,8.97
2018-07-31T06:02:06.086Z,8.80
2018-07-31T06:04:34.387Z,8.67
2018-07-31T06:07:02.682Z,9.13
2018-07-31T06:09:30.970Z,8.87
2018-07-31T06:11:59.265Z,9.30
2018-07-31T06:14:27.544Z,9.07
2018-07-31T06:16:55.805Z,9.40
2018-07-31T06:19:24.076Z,10.13
2018-07-31T06:21:52.373Z,9.97
2018-07-31T06:24:20.835Z,10.73
2018-07-31T06:26:49.099Z,10.10
2018-07-31T06:29:17.375Z,10.83
2018-07-31T06:31:45.796Z,9.90
2018-07-31T06:34:14.077Z,10.00
2018-07-31T06:36:42.396Z,10.93
2018-07-31T06:39:11.073Z,10.17
2018-07-31T06:41:39.375Z,8.90
2018-07-31T06:44:07.991Z,11.30
2018-07-31T06:46:36.631Z,11.00
2018-07-31T06:49:04.945Z,10.43
2018-07-31T06:51:33.322Z,9.20
2018-07-31T06:54:01.680Z,9.97
2018-07-31T06:56:30.312Z,9.00
2018-07-31T06:58:58.577Z,9.00
2018-07-31T07:01:27.023Z,8.50
2018-07-31T07:03:55.270Z,8.77
2018-07-31T07:06:23.561Z,8.40
2018-07-31T07:08:51.832Z,7.80
2018-07-31T07:11:20.119Z,9.20
2018-07-31T07:13:48.401Z,7.83
2018-07-31T07:16:16.746Z,8.47
2018-07-31T07:18:45.133Z,8.60
2018-07-31T07:21:13.432Z,7.97
2018-07-31T07:23:41.689Z,7.47
2018-07-31T07:26:09.988Z,7.00
2018-07-31T07:28:38.244Z,7.63
2018-07-31T07:31:06.652Z,7.87
2018-07-31T07:33:36.301Z,8.27
2018-07-31T07:36:04.535Z,7.07
2018-07-31T07:38:33.251Z,6.70
2018-07-31T07:41:01.491Z,6.47
2018-07-31T07:43:29.777Z,6.80
2018-07-31T07:45:58.018Z,6.77
2018-07-31T07:48:26.316Z,6.30
2018-07-31T07:50:54.621Z,6.70
2018-07-31T07:53:22.905Z,8.70
2018-07-31T07:55:51.210Z,9.37
2018-07-31T07:58:19.460Z,9.20
2018-07-31T08:00:47.776Z,9.90
2018-07-31T08:03:16.095Z,9.00
2018-07-31T08:05:44.379Z,8.23
2018-07-31T08:08:12.641Z,8.10
2018-07-31T08:10:42.727Z,7.70
2018-07-31T08:13:11.047Z,8.70
2018-07-31T08:15:39.558Z,7.87
2018-07-31T08:18:07.864Z,8.00
2018-07-31T08:20:36.192Z,7.43
2018-07-31T08:23:04.665Z,8.30
2018-07-31T08:25:33.134Z,8.50
2018-07-31T08:28:01.768Z,8.23
2018-07-31T08:30:30.109Z,7.50
2018-07-31T08:32:58.780Z,7.90
2018-07-31T08:35:27.728Z,7.80
2018-07-31T08:37:56.246Z,8.23
2018-07-31T08:40:24.545Z,9.00
2018-07-31T08:42:52.872Z,8.23
2018-07-31T08:45:21.537Z,8.63
2018-07-31T08:47:49.797Z,7.90
2018-07-31T08:50:18.105Z,7.47
2018-07-31T08:52:46.374Z,7.07
2018-07-31T08:55:14.886Z,6.13
2018-07-31T08:57:43.358Z,6.13
2018-07-31T09:00:11.670Z,6.13
2018-07-31T09:02:40.023Z,5.70
2018-07-31T09:05:08.535Z,5.70
2018-07-31T09:07:37.003Z,5.80
2018-07-31T09:10:06.102Z,5.40
2018-07-31T09:12:34.454Z,6.30
2018-07-31T09:15:02.753Z,6.07
2018-07-31T09:17:31.258Z,6.20
2018-07-31T09:19:59.501Z,5.63
2018-07-31T09:22:27.795Z,5.07
2018-07-31T09:24:56.159Z,4.83
2018-07-31T09:27:24.556Z,4.47
2018-07-31T09:29:52.879Z,4.57
2018-07-31T09:32:26.640Z,3.83
2018-07-31T09:34:54.932Z,5.17
2018-07-31T09:37:23.304Z,4.40
2018-07-31T09:39:51.579Z,4.77
2018-07-31T09:42:19.889Z,5.53
2018-07-31T09:44:48.215Z,4.83
2018-07-31T09:47:16.464Z,4.10
2018-07-31T09:49:44.781Z,4.57
2018-07-31T09:52:13.036Z,3.80
2018-07-31T09:54:41.441Z,3.90
2018-07-31T09:57:09.912Z,3.70
2018-07-31T09:59:38.201Z,4.10
2018-07-31T10:02:06.991Z,4.00
2018-07-31T10:04:35.257Z,3.83
2018-07-31T10:07:03.556Z,4.40
2018-07-31T10:09:31.809Z,4.27
2018-07-31T10:12:01.949Z,4.60
2018-07-31T10:14:30.292Z,4.60
2018-07-31T10:16:58.602Z,4.20
2018-07-31T10:19:26.916Z,4.60
2018-07-31T10:21:55.241Z,4.13
2018-07-31T10:24:23.838Z,4.17
2018-07-31T10:26:52.541Z,4.33
2018-07-31T10:29:21.349Z,4.73
2018-07-31T10:32:07.132Z,4.60
2018-07-31T10:34:35.447Z,4.90
2018-07-31T10:37:03.773Z,5.10
2018-07-31T10:39:32.197Z,4.60
2018-07-31T10:42:00.453Z,4.23
2018-07-31T10:44:28.801Z,4.47
2018-07-31T10:46:57.068Z,5.03
2018-07-31T10:49:25.347Z,4.67
2018-07-31T10:51:53.675Z,4.50
2018-07-31T10:54:22.274Z,4.23
2018-07-31T10:56:50.693Z,3.60
2018-07-31T10:59:18.987Z,3.30
2018-07-31T11:01:47.682Z,3.17
2018-07-31T11:04:16.225Z,3.20
2018-07-31T11:06:44.635Z,3.13
2018-07-31T11:09:12.987Z,2.80
2018-07-31T11:11:41.766Z,2.80
2018-07-31T11:14:10.601Z,3.30
2018-07-31T11:16:39.101Z,2.97
2018-07-31T11:19:07.578Z,2.70
2018-07-31T11:21:36.007Z,2.73
2018-07-31T11:24:04.301Z,2.70
2018-07-31T11:26:32.672Z,2.50
2018-07-31T11:29:01.091Z,2.40
2018-07-31T11:31:29.440Z,3.00
2018-07-31T11:33:57.686Z,2.60
2018-07-31T11:36:26.044Z,2.47
2018-07-31T11:38:54.362Z,2.60
2018-07-31T11:41:22.781Z,2.77
2018-07-31T11:43:51.122Z,2.67
2018-07-31T11:46:19.405Z,2.83
2018-07-31T11:48:47.796Z,2.80
2018-07-31T11:51:16.069Z,3.40
2018-07-31T11:53:44.460Z,3.37
2018-07-31T11:56:13.623Z,3.27
2018-07-31T11:58:41.964Z,3.20
2018-07-31T12:01:10.265Z,3.70
2018-07-31T12:03:38.556Z,4.10
2018-07-31T12:06:07.104Z,4.30
2018-07-31T12:08:35.395Z,4.20
2018-07-31T12:11:03.737Z,4.73
2018-07-31T12:13:32.024Z,6.00
2018-07-31T12:16:00.337Z,4.37
2018-07-31T12:18:28.678Z,4.17
2018-07-31T12:20:56.987Z,4.10
2018-07-31T12:23:31.901Z,3.90
2018-07-31T12:26:00.147Z,4.40
2018-07-31T12:28:28.455Z,4.03
2018-07-31T12:30:56.773Z,3.00
2018-07-31T12:33:25.052Z,3.03
2018-07-31T12:35:53.371Z,2.83
2018-07-31T12:38:22.078Z,2.87
2018-07-31T12:40:50.327Z,2.60
2018-07-31T12:43:18.598Z,3.77
2018-07-31T12:45:46.975Z,2.50
2018-07-31T12:48:15.325Z,2.43
2018-07-31T12:50:43.685Z,2.60
2018-07-31T12:53:12.059Z,2.73
2018-07-31T12:55:40.357Z,2.50
2018-07-31T12:58:08.610Z,2.70
2018-07-31T13:00:37.386Z,2.50
2018-07-31T13:03:06.095Z,2.47
2018-07-31T13:05:34.449Z,2.20
2018-07-31T13:08:02.759Z,2.10
2018-07-31T13:10:31.006Z,2.10
2018-07-31T13:12:59.356Z,2.67
2018-07-31T13:15:27.760Z,4.70
2018-07-31T13:17:56.506Z,5.93
2018-07-31T13:20:24.924Z,6.27
2018-07-31T13:22:53.836Z,5.93
2018-07-31T13:25:22.086Z,6.17
2018-07-31T13:27:50.974Z,6.30
2018-07-31T13:30:19.341Z,6.30
2018-07-31T13:32:47.650Z,6.23
2018-07-31T13:35:15.935Z,5.90
2018-07-31T13:37:44.210Z,6.17
2018-07-31T13:40:12.564Z,5.63
2018-07-31T13:42:40.911Z,5.40
2018-07-31T13:45:09.175Z,6.97
2018-07-31T13:47:37.496Z,7.97
2018-07-31T13:50:05.790Z,7.97
2018-07-31T13:52:34.094Z,9.00
2018-07-31T13:55:02.675Z,7.70
2018-07-31T13:57:31.189Z,7.23
2018-07-31T13:59:59.527Z,7.70
2018-07-31T14:02:27.827Z,7.33
2018-07-31T14:04:56.158Z,6.73
2018-07-31T14:07:24.419Z,6.70
2018-07-31T14:09:52.736Z,6.07
2018-07-31T14:12:21.027Z,5.37
2018-07-31T14:14:50.152Z,6.43
2018-07-31T14:17:20.260Z,5.73
2018-07-31T14:19:48.618Z,5.57
2018-07-31T14:22:16.982Z,5.20
2018-07-31T14:24:45.309Z,6.30
2018-07-31T14:27:13.616Z,5.70
2018-07-31T14:29:41.861Z,5.27
2018-07-31T14:32:10.151Z,5.43
2018-07-31T14:34:38.459Z,5.33
2018-07-31T14:37:06.777Z,4.83
2018-07-31T14:39:35.313Z,4.90
2018-07-31T14:42:10.291Z,5.37
2018-07-31T14:44:38.625Z,4.30
2018-07-31T14:47:06.999Z,4.53
2018-07-31T14:49:35.282Z,4.70
2018-07-31T14:52:10.130Z,4.53
2018-07-31T14:54:38.619Z,4.43
2018-07-31T14:57:07.138Z,4.53
2018-07-31T14:59:35.482Z,4.37
2018-07-31T15:02:04.102Z,4.10
2018-07-31T15:04:32.470Z,4.30
2018-07-31T15:07:00.793Z,4.10
2018-07-31T15:09:29.141Z,4.00
2018-07-31T15:11:57.551Z,4.07
2018-07-31T15:14:25.842Z,3.83
2018-07-31T15:16:54.155Z,3.63
2018-07-31T15:19:22.420Z,3.50
2018-07-31T15:21:50.711Z,3.43
2018-07-31T15:24:19.040Z,3.90
2018-07-31T15:26:47.365Z,3.90
2018-07-31T15:29:15.672Z,3.60
2018-07-31T15:31:44.032Z,3.60
2018-07-31T15:34:12.474Z,3.27
2018-07-31T15:36:40.776Z,3.23
2018-07-31T15:39:11.915Z,3.17
2018-07-31T15:41:40.658Z,3.57
2018-07-31T15:44:09.149Z,3.43
2018-07-31T15:46:37.458Z,3.40
2018-07-31T15:49:05.925Z,2.70
2018-07-31T15:51:34.366Z,3.20
2018-07-31T15:54:03.740Z,2.93
2018-07-31T15:56:32.277Z,2.90
2018-07-31T15:59:00.556Z,3.10
2018-07-31T16:01:29.578Z,3.07
2018-07-31T16:03:58.559Z,3.03
2018-07-31T16:06:27.152Z,3.00
2018-07-31T16:08:55.429Z,2.80
2018-07-31T16:11:23.693Z,2.90
2018-07-31T16:13:52.078Z,2.93
2018-07-31T16:16:20.377Z,2.73
2018-07-31T16:18:48.707Z,2.57
2018-07-31T16:21:16.963Z,2.30
2018-07-31T16:23:45.332Z,2.80
2018-07-31T16:26:13.681Z,2.50
2018-07-31T16:28:42.486Z,2.60
2018-07-31T16:31:10.852Z,2.30
2018-07-31T16:33:39.345Z,2.50
2018-07-31T16:36:07.646Z,2.40
2018-07-31T16:38:36.032Z,2.40
2018-07-31T16:41:04.364Z,2.10
2018-07-31T16:43:32.710Z,2.40
2018-07-31T16:46:01.100Z,2.40
2018-07-31T16:48:29.413Z,2.13
2018-07-31T16:50:57.707Z,2.30
2018-07-31T16:53:26.007Z,2.53
2018-07-31T16:55:54.303Z,2.13
2018-07-31T16:58:22.649Z,2.37
2018-07-31T17:00:51.031Z,2.47
2018-07-31T17:03:19.332Z,2.13
2018-07-31T17:05:47.651Z,1.97
2018-07-31T17:08:15.985Z,2.00
2018-07-31T17:10:44.420Z,2.70
2018-07-31T17:13:12.680Z,2.23
2018-07-31T17:15:41.085Z,2.07
2018-07-31T17:18:10.444Z,2.30
2018-07-31T17:20:38.816Z,2.60
2018-07-31T17:23:07.232Z,2.30
2018-07-31T17:25:35.714Z,2.47
2018-07-31T17:28:04.249Z,2.53
2018-07-31T17:30:32.809Z,2.40
2018-07-31T17:33:01.066Z,2.13
2018-07-31T17:35:29.383Z,2.10
2018-07-31T17:37:57.808Z,2.43
2018-07-31T17:40:26.100Z,2.07
2018-07-31T17:42:54.366Z,2.33
2018-07-31T17:45:22.619Z,2.43
2018-07-31T17:47:50.904Z,2.63
2018-07-31T17:50:19.493Z,2.10
2018-07-31T17:52:47.893Z,2.60
2018-07-31T17:55:16.208Z,2.60
2018-07-31T17:57:44.602Z,2.60
2018-07-31T18:00:12.878Z,2.30
2018-07-31T18:02:41.414Z,2.43
2018-07-31T18:05:09.735Z,2.30
2018-07-31T18:07:38.009Z,2.30
2018-07-31T18:10:06.402Z,2.40
2018-07-31T18:12:34.862Z,2.40
2018-07-31T18:15:03.232Z,2.37
2018-07-31T18:17:32.539Z,2.50
2018-07-31T18:20:00.889Z,2.40
2018-07-31T18:22:29.149Z,2.23
2018-07-31T18:24:57.450Z,2.37
2018-07-31T18:27:25.728Z,2.20
2018-07-31T18:29:54.338Z,2.37
2018-07-31T18:32:22.614Z,2.30
2018-07-31T18:34:50.969Z,2.47
2018-07-31T18:37:19.265Z,2.40
2018-07-31T18:39:47.627Z,2.47
2018-07-31T18:42:15.974Z,2.17
2018-07-31T18:44:44.246Z,2.47
2018-07-31T18:47:12.565Z,2.57
2018-07-31T18:49:40.933Z,2.60
2018-07-31T18:52:09.325Z,1.93
2018-07-31T18:54:37.576Z,2.60
2018-07-31T18:57:05.850Z,2.30
2018-07-31T18:59:34.267Z,2.20
2018-07-31T19:02:03.578Z,2.20
2018-07-31T19:04:32.051Z,2.20
2018-07-31T19:07:00.415Z,2.40
2018-07-31T19:09:28.954Z,2.30
2018-07-31T19:11:57.224Z,1.83
2018-07-31T19:14:25.646Z,2.40
2018-07-31T19:16:54.004Z,1.73
2018-07-31T19:19:22.330Z,2.07
2018-07-31T19:21:50.581Z,2.20
2018-07-31T19:24:18.884Z,2.30
2018-07-31T19:26:47.189Z,2.30
2018-07-31T19:29:15.463Z,2.00
2018-07-31T19:31:43.817Z,2.00
2018-07-31T19:34:12.199Z,1.90
2018-07-31T19:36:40.666Z,2.50
2018-07-31T19:39:09.498Z,1.90
2018-07-31T19:41:37.826Z,2.03
2018-07-31T19:44:06.416Z,2.03
2018-07-31T19:46:34.729Z,2.00
2018-07-31T19:49:03.051Z,1.93
2018-07-31T19:51:31.406Z,2.13
2018-07-31T19:54:00.092Z,1.90
2018-07-31T19:56:28.616Z,2.10
2018-07-31T19:58:56.987Z,2.10
2018-07-31T20:01:25.321Z,2.13
2018-07-31T20:03:53.630Z,2.50
2018-07-31T20:06:21.986Z,1.90
2018-07-31T20:08:50.308Z,1.80
2018-07-31T20:11:18.641Z,2.27
2018-07-31T20:13:47.014Z,2.20
2018-07-31T20:16:15.293Z,1.90
2018-07-31T20:18:43.634Z,2.17
2018-07-31T20:21:11.951Z,2.00
2018-07-31T20:23:40.480Z,2.33
2018-07-31T20:26:08.967Z,1.90
2018-07-31T20:28:37.240Z,1.90
2018-07-31T20:31:05.845Z,2.00
2018-07-31T20:33:34.303Z,1.50
2018-07-31T20:36:06.184Z,2.10
2018-07-31T20:38:34.798Z,1.80
2018-07-31T20:41:03.334Z,1.90
2018-07-31T20:43:31.947Z,2.00
2018-07-31T20:46:00.365Z,2.00
2018-07-31T20:48:32.493Z,2.20
2018-07-31T20:51:01.552Z,1.97
2018-07-31T20:53:30.373Z,2.00
2018-07-31T20:56:02.091Z,2.00
2018-07-31T20:58:30.350Z,1.80
2018-07-31T21:00:59.905Z,2.33
2018-07-31T21:03:28.447Z,2.10
2018-07-31T21:05:56.832Z,2.20
2018-07-31T21:08:25.115Z,2.27
2018-07-31T21:10:53.620Z,2.00
2018-07-31T21:13:24.445Z,2.10
2018-07-31T21:15:52.731Z,2.23
2018-07-31T21:18:21.579Z,2.23
2018-07-31T21:20:49.862Z,2.57
2018-07-31T21:23:18.583Z,2.47
2018-07-31T21:25:46.956Z,1.87
2018-07-31T21:28:15.243Z,2.13
2018-07-31T21:30:43.653Z,2.10
2018-07-31T21:33:11.957Z,2.23
2018-07-31T21:35:40.464Z,2.00
2018-07-31T21:38:08.746Z,1.80
2018-07-31T21:40:37.089Z,2.03
2018-07-31T21:43:05.345Z,2.43
2018-07-31T21:45:33.646Z,2.00
2018-07-31T21:48:01.980Z,2.20
2018-07-31T21:50:30.268Z,2.10
2018-07-31T21:52:58.665Z,2.07
2018-07-31T21:55:27.287Z,1.87
2018-07-31T21:57:55.683Z,2.43
2018-07-31T22:00:24.080Z,2.10
2018-07-31T22:02:54.154Z,2.20
2018-07-31T22:05:22.473Z,2.20
2018-07-31T22:07:50.824Z,2.10
2018-07-31T22:10:20.765Z,2.20
2018-07-31T22:12:49.148Z,2.20
2018-07-31T22:15:17.698Z,2.27
2018-07-31T22:17:46.032Z,2.20
2018-07-31T22:20:14.405Z,2.17
2018-07-31T22:22:43.025Z,2.10
2018-07-31T22:25:11.392Z,2.13
2018-07-31T22:27:43.916Z,2.37
2018-07-31T22:30:12.447Z,2.30
2018-07-31T22:32:40.765Z,2.27
2018-07-31T22:35:09.360Z,2.40
2018-07-31T22:37:37.608Z,2.80
2018-07-31T22:40:06.145Z,2.47
2018-07-31T22:42:34.740Z,2.20
2018-07-31T22:45:03.754Z,3.20
2018-07-31T22:47:32.364Z,2.80
2018-07-31T22:50:00.825Z,2.97
2018-07-31T22:52:29.118Z,2.80
2018-07-31T22:54:57.665Z,2.87
2018-07-31T22:57:26.102Z,2.60
2018-07-31T22:59:54.466Z,2.33
2018-07-31T23:02:22.793Z,2.57
2018-07-31T23:04:51.274Z,2.60
2018-07-31T23:07:19.590Z,2.53
2018-07-31T23:09:54.996Z,2.77
2018-07-31T23:12:23.361Z,2.90
2018-07-31T23:14:51.694Z,2.70
2018-07-31T23:17:19.981Z,3.17
2018-07-31T23:19:52.330Z,3.10
2018-07-31T23:22:32.104Z,2.90
2018-07-31T23:25:00.713Z,2.90
2018-07-31T23:27:28.998Z,2.87
2018-07-31T23:29:57.371Z,2.50
2018-07-31T23:32:27.860Z,3.00
2018-07-31T23:34:57.829Z,2.93
2018-07-31T23:37:26.259Z,2.50
2018-07-31T23:39:55.621Z,2.80
2018-07-31T23:42:26.254Z,3.30
2018-07-31T23:44:55.146Z,3.20
2018-07-31T23:47:23.448Z,3.50
2018-07-31T23:49:51.840Z,3.27
2018-07-31T23:52:20.200Z,3.10
2018-07-31T23:54:48.692Z,3.00
2018-07-31T23:57:17.323Z,3.00
2018-07-31T23:59:45.661Z,3.10
